sensor_id;sensor_type;location;lat;lon;timestamp;temperature;humidity
8103;DHT22;4094;49.948;11.574;2023-03-21T00:00:55;13.00;66.20
8103;DHT22;4094;49.948;11.574;2023-03-21T00:03:25;13.00;66.00
8103;DHT22;4094;49.948;11.574;2023-03-21T00:05:54;13.00;65.70
8103;DHT22;4094;49.948;11.574;2023-03-21T00:08:25;13.00;65.60
8103;DHT22;4094;49.948;11.574;2023-03-21T00:10:55;13.00;65.00
8103;DHT22;4094;49.948;11.574;2023-03-21T00:13:26;13.00;64.40
8103;DHT22;4094;49.948;11.574;2023-03-21T00:16:03;13.00;64.00
8103;DHT22;4094;49.948;11.574;2023-03-21T00:18:49;13.00;63.30
8103;DHT22;4094;49.948;11.574;2023-03-21T00:21:21;13.00;63.40
8103;DHT22;4094;49.948;11.574;2023-03-21T00:24:16;13.00;63.30
8103;DHT22;4094;49.948;11.574;2023-03-21T00:26:45;12.90;62.70
8103;DHT22;4094;49.948;11.574;2023-03-21T00:29:15;13.00;62.70
8103;DHT22;4094;49.948;11.574;2023-03-21T00:31:46;12.90;62.60
8103;DHT22;4094;49.948;11.574;2023-03-21T00:34:15;12.90;61.60
8103;DHT22;4094;49.948;11.574;2023-03-21T00:36:59;12.90;61.50
8103;DHT22;4094;49.948;11.574;2023-03-21T00:39:29;12.90;61.40
8103;DHT22;4094;49.948;11.574;2023-03-21T00:41:58;12.90;62.30
8103;DHT22;4094;49.948;11.574;2023-03-21T00:44:27;12.90;61.50
8103;DHT22;4094;49.948;11.574;2023-03-21T00:46:56;12.90;61.40
8103;DHT22;4094;49.948;11.574;2023-03-21T00:49:34;12.90;61.50
8103;DHT22;4094;49.948;11.574;2023-03-21T00:52:06;12.80;61.20
8103;DHT22;4094;49.948;11.574;2023-03-21T00:54:48;12.80;60.90
8103;DHT22;4094;49.948;11.574;2023-03-21T00:57:17;12.80;60.50
8103;DHT22;4094;49.948;11.574;2023-03-21T00:59:51;12.80;60.50
8103;DHT22;4094;49.948;11.574;2023-03-21T01:02:19;12.70;60.60
8103;DHT22;4094;49.948;11.574;2023-03-21T01:04:53;12.70;60.50
8103;DHT22;4094;49.948;11.574;2023-03-21T01:07:23;12.70;60.50
8103;DHT22;4094;49.948;11.574;2023-03-21T01:09:53;12.70;60.30
8103;DHT22;4094;49.948;11.574;2023-03-21T01:12:22;12.70;60.60
8103;DHT22;4094;49.948;11.574;2023-03-21T01:14:51;12.70;60.20
8103;DHT22;4094;49.948;11.574;2023-03-21T01:17:20;12.70;60.00
8103;DHT22;4094;49.948;11.574;2023-03-21T01:19:50;12.70;60.50
8103;DHT22;4094;49.948;11.574;2023-03-21T01:22:19;12.60;60.70
8103;DHT22;4094;49.948;11.574;2023-03-21T01:24:48;12.60;60.90
8103;DHT22;4094;49.948;11.574;2023-03-21T01:27:28;12.60;61.00
8103;DHT22;4094;49.948;11.574;2023-03-21T01:29:58;12.50;61.10
8103;DHT22;4094;49.948;11.574;2023-03-21T01:32:27;12.50;61.30
8103;DHT22;4094;49.948;11.574;2023-03-21T01:34:56;12.50;61.20
8103;DHT22;4094;49.948;11.574;2023-03-21T01:37:26;12.50;61.00
8103;DHT22;4094;49.948;11.574;2023-03-21T01:39:55;12.50;61.30
8103;DHT22;4094;49.948;11.574;2023-03-21T01:42:24;12.40;61.00
8103;DHT22;4094;49.948;11.574;2023-03-21T01:44:57;12.40;61.10
8103;DHT22;4094;49.948;11.574;2023-03-21T01:47:34;12.40;61.30
8103;DHT22;4094;49.948;11.574;2023-03-21T01:50:17;12.30;61.10
8103;DHT22;4094;49.948;11.574;2023-03-21T01:53:02;12.20;61.10
8103;DHT22;4094;49.948;11.574;2023-03-21T01:55:33;12.20;61.00
8103;DHT22;4094;49.948;11.574;2023-03-21T01:58:13;12.20;61.00
8103;DHT22;4094;49.948;11.574;2023-03-21T02:01:07;12.10;61.10
8103;DHT22;4094;49.948;11.574;2023-03-21T02:03:45;12.10;60.90
8103;DHT22;4094;49.948;11.574;2023-03-21T02:06:41;12.00;61.10
8103;DHT22;4094;49.948;11.574;2023-03-21T02:09:37;12.00;61.30
8103;DHT22;4094;49.948;11.574;2023-03-21T02:12:12;11.90;61.30
8103;DHT22;4094;49.948;11.574;2023-03-21T02:14:45;11.90;61.30
8103;DHT22;4094;49.948;11.574;2023-03-21T02:17:28;11.80;61.50
8103;DHT22;4094;49.948;11.574;2023-03-21T02:20:26;11.80;61.60
8103;DHT22;4094;49.948;11.574;2023-03-21T02:23:47;11.70;61.80
8103;DHT22;4094;49.948;11.574;2023-03-21T02:27:02;11.70;62.00
8103;DHT22;4094;49.948;11.574;2023-03-21T02:30:08;11.60;62.20
8103;DHT22;4094;49.948;11.574;2023-03-21T02:33:02;11.60;62.50
8103;DHT22;4094;49.948;11.574;2023-03-21T02:35:48;11.60;63.60
8103;DHT22;4094;49.948;11.574;2023-03-21T02:38:29;11.50;63.10
8103;DHT22;4094;49.948;11.574;2023-03-21T02:41:05;11.50;63.20
8103;DHT22;4094;49.948;11.574;2023-03-21T02:43:51;11.40;63.20
8103;DHT22;4094;49.948;11.574;2023-03-21T02:46:27;11.40;63.30
8103;DHT22;4094;49.948;11.574;2023-03-21T02:49:14;11.40;63.50
8103;DHT22;4094;49.948;11.574;2023-03-21T02:51:45;11.40;63.60
8103;DHT22;4094;49.948;11.574;2023-03-21T02:54:20;11.40;63.60
8103;DHT22;4094;49.948;11.574;2023-03-21T02:57:05;11.40;63.60
8103;DHT22;4094;49.948;11.574;2023-03-21T02:59:37;11.40;63.80
8103;DHT22;4094;49.948;11.574;2023-03-21T03:02:26;11.30;63.90
8103;DHT22;4094;49.948;11.574;2023-03-21T03:04:55;11.30;64.00
8103;DHT22;4094;49.948;11.574;2023-03-21T03:07:34;11.30;64.00
8103;DHT22;4094;49.948;11.574;2023-03-21T03:10:23;11.30;64.20
8103;DHT22;4094;49.948;11.574;2023-03-21T03:13:02;11.30;64.30
8103;DHT22;4094;49.948;11.574;2023-03-21T03:15:38;11.30;64.30
8103;DHT22;4094;49.948;11.574;2023-03-21T03:18:19;11.30;64.30
8103;DHT22;4094;49.948;11.574;2023-03-21T03:20:55;11.30;64.30
8103;DHT22;4094;49.948;11.574;2023-03-21T03:23:29;11.30;64.30
8103;DHT22;4094;49.948;11.574;2023-03-21T03:26:06;11.20;64.30
8103;DHT22;4094;49.948;11.574;2023-03-21T03:28:40;11.20;64.20
8103;DHT22;4094;49.948;11.574;2023-03-21T03:31:18;11.20;64.40
8103;DHT22;4094;49.948;11.574;2023-03-21T03:33:59;11.20;64.30
8103;DHT22;4094;49.948;11.574;2023-03-21T03:36:32;11.20;64.40
8103;DHT22;4094;49.948;11.574;2023-03-21T03:39:11;11.20;64.40
8103;DHT22;4094;49.948;11.574;2023-03-21T03:41:50;11.20;64.20
8103;DHT22;4094;49.948;11.574;2023-03-21T03:44:44;11.20;64.10
8103;DHT22;4094;49.948;11.574;2023-03-21T03:47:19;11.20;64.10
8103;DHT22;4094;49.948;11.574;2023-03-21T03:50:03;11.20;64.10
8103;DHT22;4094;49.948;11.574;2023-03-21T03:52:39;11.10;63.90
8103;DHT22;4094;49.948;11.574;2023-03-21T03:55:25;11.10;64.00
8103;DHT22;4094;49.948;11.574;2023-03-21T03:58:08;11.00;63.90
8103;DHT22;4094;49.948;11.574;2023-03-21T04:00:52;11.00;64.10
8103;DHT22;4094;49.948;11.574;2023-03-21T04:03:21;10.90;64.00
8103;DHT22;4094;49.948;11.574;2023-03-21T04:05:51;10.90;64.20
8103;DHT22;4094;49.948;11.574;2023-03-21T04:08:21;10.90;64.20
8103;DHT22;4094;49.948;11.574;2023-03-21T04:10:54;10.80;64.20
8103;DHT22;4094;49.948;11.574;2023-03-21T04:13:25;10.80;64.20
8103;DHT22;4094;49.948;11.574;2023-03-21T04:16:09;10.80;64.20
8103;DHT22;4094;49.948;11.574;2023-03-21T04:18:40;10.70;64.30
8103;DHT22;4094;49.948;11.574;2023-03-21T04:21:11;10.70;64.40
8103;DHT22;4094;49.948;11.574;2023-03-21T04:23:41;10.70;64.60
8103;DHT22;4094;49.948;11.574;2023-03-21T04:26:10;10.70;64.60
8103;DHT22;4094;49.948;11.574;2023-03-21T04:28:49;10.60;64.70
8103;DHT22;4094;49.948;11.574;2023-03-21T04:31:25;10.60;64.80
8103;DHT22;4094;49.948;11.574;2023-03-21T04:34:05;10.60;64.90
8103;DHT22;4094;49.948;11.574;2023-03-21T04:36:37;10.60;64.90
8103;DHT22;4094;49.948;11.574;2023-03-21T04:39:10;10.60;65.70
8103;DHT22;4094;49.948;11.574;2023-03-21T04:41:42;10.60;65.30
8103;DHT22;4094;49.948;11.574;2023-03-21T04:44:13;10.60;65.60
8103;DHT22;4094;49.948;11.574;2023-03-21T04:46:43;10.60;65.70
8103;DHT22;4094;49.948;11.574;2023-03-21T04:49:13;10.60;65.70
8103;DHT22;4094;49.948;11.574;2023-03-21T04:51:43;10.60;65.80
8103;DHT22;4094;49.948;11.574;2023-03-21T04:54:17;10.60;65.70
8103;DHT22;4094;49.948;11.574;2023-03-21T04:56:47;10.60;65.70
8103;DHT22;4094;49.948;11.574;2023-03-21T04:59:20;10.60;65.70
8103;DHT22;4094;49.948;11.574;2023-03-21T05:01:49;10.60;65.60
8103;DHT22;4094;49.948;11.574;2023-03-21T05:04:19;10.70;65.70
8103;DHT22;4094;49.948;11.574;2023-03-21T05:06:48;10.70;65.80
8103;DHT22;4094;49.948;11.574;2023-03-21T05:09:17;10.70;65.90
8103;DHT22;4094;49.948;11.574;2023-03-21T05:11:47;10.70;65.80
8103;DHT22;4094;49.948;11.574;2023-03-21T05:14:21;10.70;65.60
8103;DHT22;4094;49.948;11.574;2023-03-21T05:16:51;10.70;65.70
8103;DHT22;4094;49.948;11.574;2023-03-21T05:19:25;10.70;65.60
8103;DHT22;4094;49.948;11.574;2023-03-21T05:22:04;10.70;65.60
8103;DHT22;4094;49.948;11.574;2023-03-21T05:24:35;10.80;65.50
8103;DHT22;4094;49.948;11.574;2023-03-21T05:27:07;10.80;66.20
8103;DHT22;4094;49.948;11.574;2023-03-21T05:29:44;10.70;65.30
8103;DHT22;4094;49.948;11.574;2023-03-21T05:32:15;10.70;65.30
8103;DHT22;4094;49.948;11.574;2023-03-21T05:34:45;10.80;65.60
8103;DHT22;4094;49.948;11.574;2023-03-21T05:37:14;10.80;65.60
8103;DHT22;4094;49.948;11.574;2023-03-21T05:39:47;10.80;65.50
8103;DHT22;4094;49.948;11.574;2023-03-21T05:42:23;10.80;65.50
8103;DHT22;4094;49.948;11.574;2023-03-21T05:44:54;10.80;65.60
8103;DHT22;4094;49.948;11.574;2023-03-21T05:47:28;10.80;65.60
8103;DHT22;4094;49.948;11.574;2023-03-21T05:49:59;10.80;65.50
8103;DHT22;4094;49.948;11.574;2023-03-21T05:52:31;10.80;65.50
8103;DHT22;4094;49.948;11.574;2023-03-21T05:55:01;10.80;65.60
8103;DHT22;4094;49.948;11.574;2023-03-21T05:57:31;10.90;65.50
8103;DHT22;4094;49.948;11.574;2023-03-21T06:00:11;10.90;65.50
8103;DHT22;4094;49.948;11.574;2023-03-21T06:02:43;10.90;65.20
8103;DHT22;4094;49.948;11.574;2023-03-21T06:05:32;10.90;65.10
8103;DHT22;4094;49.948;11.574;2023-03-21T06:08:01;10.80;65.00
8103;DHT22;4094;49.948;11.574;2023-03-21T06:10:31;10.90;65.10
8103;DHT22;4094;49.948;11.574;2023-03-21T06:13:02;10.80;65.00
8103;DHT22;4094;49.948;11.574;2023-03-21T06:15:34;10.80;65.10
8103;DHT22;4094;49.948;11.574;2023-03-21T06:18:15;10.80;65.30
8103;DHT22;4094;49.948;11.574;2023-03-21T06:20:55;10.80;65.30
8103;DHT22;4094;49.948;11.574;2023-03-21T06:23:24;10.80;65.40
8103;DHT22;4094;49.948;11.574;2023-03-21T06:25:54;10.80;65.40
8103;DHT22;4094;49.948;11.574;2023-03-21T06:28:25;10.90;65.50
8103;DHT22;4094;49.948;11.574;2023-03-21T06:30:56;10.90;65.50
8103;DHT22;4094;49.948;11.574;2023-03-21T06:33:26;10.90;66.40
8103;DHT22;4094;49.948;11.574;2023-03-21T06:35:57;11.00;65.70
8103;DHT22;4094;49.948;11.574;2023-03-21T06:38:26;11.00;65.70
8103;DHT22;4094;49.948;11.574;2023-03-21T06:40:55;11.10;65.70
8103;DHT22;4094;49.948;11.574;2023-03-21T06:43:27;11.10;65.70
8103;DHT22;4094;49.948;11.574;2023-03-21T06:45:58;11.20;65.70
8103;DHT22;4094;49.948;11.574;2023-03-21T06:48:27;11.20;65.40
8103;DHT22;4094;49.948;11.574;2023-03-21T06:50:57;11.30;65.30
8103;DHT22;4094;49.948;11.574;2023-03-21T06:53:28;11.40;65.30
8103;DHT22;4094;49.948;11.574;2023-03-21T06:56:23;11.40;65.30
8103;DHT22;4094;49.948;11.574;2023-03-21T06:58:52;11.50;65.30
8103;DHT22;4094;49.948;11.574;2023-03-21T07:01:40;11.60;64.90
8103;DHT22;4094;49.948;11.574;2023-03-21T07:04:09;11.60;64.60
8103;DHT22;4094;49.948;11.574;2023-03-21T07:06:39;11.70;64.60
8103;DHT22;4094;49.948;11.574;2023-03-21T07:09:08;11.70;64.70
8103;DHT22;4094;49.948;11.574;2023-03-21T07:11:37;11.80;64.50
8103;DHT22;4094;49.948;11.574;2023-03-21T07:14:06;11.90;64.40
8103;DHT22;4094;49.948;11.574;2023-03-21T07:16:35;11.90;64.30
8103;DHT22;4094;49.948;11.574;2023-03-21T07:19:06;12.00;64.20
8103;DHT22;4094;49.948;11.574;2023-03-21T07:21:35;12.10;63.90
8103;DHT22;4094;49.948;11.574;2023-03-21T07:24:05;12.20;63.80
8103;DHT22;4094;49.948;11.574;2023-03-21T07:26:35;12.30;63.70
8103;DHT22;4094;49.948;11.574;2023-03-21T07:29:05;12.40;63.60
8103;DHT22;4094;49.948;11.574;2023-03-21T07:31:34;12.60;63.20
8103;DHT22;4094;49.948;11.574;2023-03-21T07:34:05;12.60;62.10
8103;DHT22;4094;49.948;11.574;2023-03-21T07:36:34;12.70;61.90
8103;DHT22;4094;49.948;11.574;2023-03-21T07:39:04;12.80;61.30
8103;DHT22;4094;49.948;11.574;2023-03-21T07:41:34;12.80;61.20
8103;DHT22;4094;49.948;11.574;2023-03-21T07:44:32;12.80;61.30
8103;DHT22;4094;49.948;11.574;2023-03-21T07:47:04;12.90;61.70
8103;DHT22;4094;49.948;11.574;2023-03-21T07:49:35;13.20;62.90
8103;DHT22;4094;49.948;11.574;2023-03-21T07:52:05;13.60;62.30
8103;DHT22;4094;49.948;11.574;2023-03-21T07:54:34;14.20;61.80
8103;DHT22;4094;49.948;11.574;2023-03-21T07:57:04;14.70;60.20
8103;DHT22;4094;49.948;11.574;2023-03-21T07:59:34;15.20;58.60
8103;DHT22;4094;49.948;11.574;2023-03-21T08:02:03;15.80;58.40
8103;DHT22;4094;49.948;11.574;2023-03-21T08:04:32;16.30;58.10
8103;DHT22;4094;49.948;11.574;2023-03-21T08:07:05;16.90;57.00
8103;DHT22;4094;49.948;11.574;2023-03-21T08:09:35;17.50;56.10
8103;DHT22;4094;49.948;11.574;2023-03-21T08:12:05;18.00;55.70
8103;DHT22;4094;49.948;11.574;2023-03-21T08:14:35;18.60;54.10
8103;DHT22;4094;49.948;11.574;2023-03-21T08:17:05;19.20;51.90
8103;DHT22;4094;49.948;11.574;2023-03-21T08:19:36;19.60;51.90
8103;DHT22;4094;49.948;11.574;2023-03-21T08:22:06;20.10;51.60
8103;DHT22;4094;49.948;11.574;2023-03-21T08:24:37;20.50;50.30
8103;DHT22;4094;49.948;11.574;2023-03-21T08:27:06;20.90;48.90
8103;DHT22;4094;49.948;11.574;2023-03-21T08:29:36;21.20;48.20
8103;DHT22;4094;49.948;11.574;2023-03-21T08:32:09;21.40;46.80
8103;DHT22;4094;49.948;11.574;2023-03-21T08:34:38;21.60;46.50
8103;DHT22;4094;49.948;11.574;2023-03-21T08:37:10;21.70;45.30
8103;DHT22;4094;49.948;11.574;2023-03-21T08:39:39;21.60;44.90
8103;DHT22;4094;49.948;11.574;2023-03-21T08:42:08;21.50;45.20
8103;DHT22;4094;49.948;11.574;2023-03-21T08:44:38;21.30;43.90
8103;DHT22;4094;49.948;11.574;2023-03-21T08:47:08;21.00;43.10
8103;DHT22;4094;49.948;11.574;2023-03-21T08:49:37;20.60;43.20
8103;DHT22;4094;49.948;11.574;2023-03-21T08:52:07;20.10;43.60
8103;DHT22;4094;49.948;11.574;2023-03-21T08:54:38;19.60;44.70
8103;DHT22;4094;49.948;11.574;2023-03-21T08:57:08;19.30;46.10
8103;DHT22;4094;49.948;11.574;2023-03-21T08:59:38;18.90;46.10
8103;DHT22;4094;49.948;11.574;2023-03-21T09:02:08;18.70;46.60
8103;DHT22;4094;49.948;11.574;2023-03-21T09:04:38;18.50;47.30
8103;DHT22;4094;49.948;11.574;2023-03-21T09:07:08;18.30;47.10
8103;DHT22;4094;49.948;11.574;2023-03-21T09:09:38;18.10;47.30
8103;DHT22;4094;49.948;11.574;2023-03-21T09:12:08;18.00;47.60
8103;DHT22;4094;49.948;11.574;2023-03-21T09:14:37;17.80;47.50
8103;DHT22;4094;49.948;11.574;2023-03-21T09:17:06;17.80;48.00
8103;DHT22;4094;49.948;11.574;2023-03-21T09:19:35;17.70;47.70
8103;DHT22;4094;49.948;11.574;2023-03-21T09:22:05;17.70;47.80
8103;DHT22;4094;49.948;11.574;2023-03-21T09:24:46;17.60;46.80
8103;DHT22;4094;49.948;11.574;2023-03-21T09:27:17;17.50;47.60
8103;DHT22;4094;49.948;11.574;2023-03-21T09:29:49;17.50;48.20
8103;DHT22;4094;49.948;11.574;2023-03-21T09:32:18;17.50;48.60
8103;DHT22;4094;49.948;11.574;2023-03-21T09:34:48;17.50;48.60
8103;DHT22;4094;49.948;11.574;2023-03-21T09:37:17;17.50;48.50
8103;DHT22;4094;49.948;11.574;2023-03-21T09:39:49;17.60;48.60
8103;DHT22;4094;49.948;11.574;2023-03-21T09:42:27;17.70;47.90
8103;DHT22;4094;49.948;11.574;2023-03-21T09:45:06;17.70;47.50
8103;DHT22;4094;49.948;11.574;2023-03-21T09:47:40;17.70;47.50
8103;DHT22;4094;49.948;11.574;2023-03-21T09:50:18;17.60;47.50
8103;DHT22;4094;49.948;11.574;2023-03-21T09:52:52;17.60;48.40
8103;DHT22;4094;49.948;11.574;2023-03-21T09:55:26;17.60;48.70
8103;DHT22;4094;49.948;11.574;2023-03-21T09:58:04;17.60;48.50
8103;DHT22;4094;49.948;11.574;2023-03-21T10:00:36;17.60;48.10
8103;DHT22;4094;49.948;11.574;2023-03-21T10:03:17;17.70;48.30
8103;DHT22;4094;49.948;11.574;2023-03-21T10:05:51;17.70;48.50
8103;DHT22;4094;49.948;11.574;2023-03-21T10:08:26;17.70;48.50
8103;DHT22;4094;49.948;11.574;2023-03-21T10:11:01;17.80;48.40
8103;DHT22;4094;49.948;11.574;2023-03-21T10:13:34;17.80;48.20
8103;DHT22;4094;49.948;11.574;2023-03-21T10:16:11;17.90;48.30
8103;DHT22;4094;49.948;11.574;2023-03-21T10:18:42;17.90;48.60
8103;DHT22;4094;49.948;11.574;2023-03-21T10:21:19;18.00;49.00
8103;DHT22;4094;49.948;11.574;2023-03-21T10:24:11;18.10;48.70
8103;DHT22;4094;49.948;11.574;2023-03-21T10:26:43;18.20;48.90
8103;DHT22;4094;49.948;11.574;2023-03-21T10:29:14;18.30;48.90
8103;DHT22;4094;49.948;11.574;2023-03-21T10:31:46;18.40;49.00
8103;DHT22;4094;49.948;11.574;2023-03-21T10:34:17;18.50;48.70
8103;DHT22;4094;49.948;11.574;2023-03-21T10:36:48;18.70;47.90
8103;DHT22;4094;49.948;11.574;2023-03-21T10:39:24;18.80;48.30
8103;DHT22;4094;49.948;11.574;2023-03-21T10:41:55;18.90;48.40
8103;DHT22;4094;49.948;11.574;2023-03-21T10:44:29;18.90;48.50
8103;DHT22;4094;49.948;11.574;2023-03-21T10:47:03;19.00;48.10
8103;DHT22;4094;49.948;11.574;2023-03-21T10:49:34;19.10;47.80
8103;DHT22;4094;49.948;11.574;2023-03-21T10:52:26;19.20;48.50
8103;DHT22;4094;49.948;11.574;2023-03-21T10:55:06;19.30;47.70
8103;DHT22;4094;49.948;11.574;2023-03-21T10:57:37;19.30;47.70
8103;DHT22;4094;49.948;11.574;2023-03-21T11:00:09;19.40;47.70
8103;DHT22;4094;49.948;11.574;2023-03-21T11:02:49;19.50;47.50
8103;DHT22;4094;49.948;11.574;2023-03-21T11:05:20;19.50;47.40
8103;DHT22;4094;49.948;11.574;2023-03-21T11:07:59;19.60;47.50
8103;DHT22;4094;49.948;11.574;2023-03-21T11:10:31;19.80;48.00
8103;DHT22;4094;49.948;11.574;2023-03-21T11:13:06;19.90;47.20
8103;DHT22;4094;49.948;11.574;2023-03-21T11:15:41;20.00;47.00
8103;DHT22;4094;49.948;11.574;2023-03-21T11:18:17;20.10;46.90
8103;DHT22;4094;49.948;11.574;2023-03-21T11:20:50;20.30;46.90
8103;DHT22;4094;49.948;11.574;2023-03-21T11:23:20;20.40;46.20
8103;DHT22;4094;49.948;11.574;2023-03-21T11:25:53;20.60;45.20
8103;DHT22;4094;49.948;11.574;2023-03-21T11:28:25;20.70;45.10
8103;DHT22;4094;49.948;11.574;2023-03-21T11:31:01;20.80;45.20
8103;DHT22;4094;49.948;11.574;2023-03-21T11:33:33;21.10;44.70
8103;DHT22;4094;49.948;11.574;2023-03-21T11:36:05;21.20;44.40
8103;DHT22;4094;49.948;11.574;2023-03-21T11:38:37;21.40;43.70
8103;DHT22;4094;49.948;11.574;2023-03-21T11:41:07;21.60;44.20
8103;DHT22;4094;49.948;11.574;2023-03-21T11:43:38;21.80;44.40
8103;DHT22;4094;49.948;11.574;2023-03-21T11:46:11;22.10;44.10
8103;DHT22;4094;49.948;11.574;2023-03-21T11:48:42;22.50;44.00
8103;DHT22;4094;49.948;11.574;2023-03-21T11:51:21;22.80;42.60
8103;DHT22;4094;49.948;11.574;2023-03-21T11:54:00;23.10;41.80
8103;DHT22;4094;49.948;11.574;2023-03-21T11:56:34;23.50;42.80
8103;DHT22;4094;49.948;11.574;2023-03-21T11:59:30;23.90;40.50
8103;DHT22;4094;49.948;11.574;2023-03-21T12:05:07;24.50;40.40
8103;DHT22;4094;49.948;11.574;2023-03-21T12:07:50;24.90;40.50
8103;DHT22;4094;49.948;11.574;2023-03-21T12:10:35;25.30;39.60
8103;DHT22;4094;49.948;11.574;2023-03-21T12:13:25;25.50;38.50
8103;DHT22;4094;49.948;11.574;2023-03-21T12:16:08;25.60;37.20
8103;DHT22;4094;49.948;11.574;2023-03-21T12:19:00;25.50;36.00
8103;DHT22;4094;49.948;11.574;2023-03-21T12:21:33;25.50;37.10
8103;DHT22;4094;49.948;11.574;2023-03-21T12:24:11;25.50;37.30
8103;DHT22;4094;49.948;11.574;2023-03-21T12:26:49;25.80;37.10
8103;DHT22;4094;49.948;11.574;2023-03-21T12:29:33;26.20;37.40
8103;DHT22;4094;49.948;11.574;2023-03-21T12:35:19;27.30;36.90
8103;DHT22;4094;49.948;11.574;2023-03-21T12:37:59;27.90;34.70
8103;DHT22;4094;49.948;11.574;2023-03-21T12:40:44;28.40;35.20
8103;DHT22;4094;49.948;11.574;2023-03-21T12:43:26;29.00;33.90
8103;DHT22;4094;49.948;11.574;2023-03-21T12:45:59;29.50;33.70
8103;DHT22;4094;49.948;11.574;2023-03-21T12:48:38;30.00;32.90
8103;DHT22;4094;49.948;11.574;2023-03-21T12:51:12;30.40;32.70
8103;DHT22;4094;49.948;11.574;2023-03-21T12:53:48;30.70;32.00
8103;DHT22;4094;49.948;11.574;2023-03-21T12:56:22;30.80;31.30
8103;DHT22;4094;49.948;11.574;2023-03-21T12:58:57;30.80;30.90
8103;DHT22;4094;49.948;11.574;2023-03-21T13:01:28;30.80;30.50
8103;DHT22;4094;49.948;11.574;2023-03-21T13:06:55;30.50;30.80
8103;DHT22;4094;49.948;11.574;2023-03-21T13:09:30;30.40;30.80
8103;DHT22;4094;49.948;11.574;2023-03-21T13:12:18;30.30;30.60
8103;DHT22;4094;49.948;11.574;2023-03-21T13:15:00;30.00;30.50
8103;DHT22;4094;49.948;11.574;2023-03-21T13:17:41;29.60;30.90
8103;DHT22;4094;49.948;11.574;2023-03-21T13:20:18;29.20;31.00
8103;DHT22;4094;49.948;11.574;2023-03-21T13:22:51;28.80;30.80
8103;DHT22;4094;49.948;11.574;2023-03-21T13:25:21;28.20;30.70
8103;DHT22;4094;49.948;11.574;2023-03-21T13:27:52;27.60;31.20
8103;DHT22;4094;49.948;11.574;2023-03-21T13:30:24;27.00;31.60
8103;DHT22;4094;49.948;11.574;2023-03-21T13:33:03;26.50;32.50
8103;DHT22;4094;49.948;11.574;2023-03-21T13:35:36;26.00;33.20
8103;DHT22;4094;49.948;11.574;2023-03-21T13:38:10;25.60;33.20
8103;DHT22;4094;49.948;11.574;2023-03-21T13:40:47;25.20;33.80
8103;DHT22;4094;49.948;11.574;2023-03-21T13:43:32;24.80;34.30
8103;DHT22;4094;49.948;11.574;2023-03-21T13:46:06;24.50;34.70
8103;DHT22;4094;49.948;11.574;2023-03-21T13:48:52;24.20;35.20
8103;DHT22;4094;49.948;11.574;2023-03-21T13:51:49;23.90;35.60
8103;DHT22;4094;49.948;11.574;2023-03-21T13:54:21;23.70;36.00
8103;DHT22;4094;49.948;11.574;2023-03-21T13:56:53;23.40;36.00
8103;DHT22;4094;49.948;11.574;2023-03-21T13:59:38;23.20;36.30
8103;DHT22;4094;49.948;11.574;2023-03-21T14:02:28;23.00;36.40
8103;DHT22;4094;49.948;11.574;2023-03-21T14:05:00;22.80;36.50
8103;DHT22;4094;49.948;11.574;2023-03-21T14:07:39;22.60;37.00
8103;DHT22;4094;49.948;11.574;2023-03-21T14:10:18;22.40;37.10
8103;DHT22;4094;49.948;11.574;2023-03-21T14:12:48;22.30;37.30
8103;DHT22;4094;49.948;11.574;2023-03-21T14:15:19;22.20;37.60
8103;DHT22;4094;49.948;11.574;2023-03-21T14:17:52;22.10;38.00
8103;DHT22;4094;49.948;11.574;2023-03-21T14:20:23;22.00;38.20
8103;DHT22;4094;49.948;11.574;2023-03-21T14:22:55;21.90;38.00
8103;DHT22;4094;49.948;11.574;2023-03-21T14:25:31;21.80;38.30
8103;DHT22;4094;49.948;11.574;2023-03-21T14:28:14;21.60;38.40
8103;DHT22;4094;49.948;11.574;2023-03-21T14:30:49;21.50;38.40
8103;DHT22;4094;49.948;11.574;2023-03-21T14:33:24;21.50;38.80
8103;DHT22;4094;49.948;11.574;2023-03-21T14:35:56;21.50;38.90
8103;DHT22;4094;49.948;11.574;2023-03-21T14:38:33;21.40;39.20
8103;DHT22;4094;49.948;11.574;2023-03-21T14:41:03;21.30;39.40
8103;DHT22;4094;49.948;11.574;2023-03-21T14:43:32;21.20;39.30
8103;DHT22;4094;49.948;11.574;2023-03-21T14:46:01;21.20;39.30
8103;DHT22;4094;49.948;11.574;2023-03-21T14:48:31;21.10;39.10
8103;DHT22;4094;49.948;11.574;2023-03-21T14:51:02;21.00;39.50
8103;DHT22;4094;49.948;11.574;2023-03-21T14:53:36;20.90;39.60
8103;DHT22;4094;49.948;11.574;2023-03-21T14:56:09;20.80;39.80
8103;DHT22;4094;49.948;11.574;2023-03-21T14:58:40;20.80;39.90
8103;DHT22;4094;49.948;11.574;2023-03-21T15:01:15;20.70;39.90
8103;DHT22;4094;49.948;11.574;2023-03-21T15:03:45;20.60;40.10
8103;DHT22;4094;49.948;11.574;2023-03-21T15:06:15;20.60;40.30
8103;DHT22;4094;49.948;11.574;2023-03-21T15:08:54;20.50;40.40
8103;DHT22;4094;49.948;11.574;2023-03-21T15:11:32;20.50;40.50
8103;DHT22;4094;49.948;11.574;2023-03-21T15:14:03;20.50;40.60
8103;DHT22;4094;49.948;11.574;2023-03-21T15:16:33;20.40;40.50
8103;DHT22;4094;49.948;11.574;2023-03-21T15:19:03;20.30;40.80
8103;DHT22;4094;49.948;11.574;2023-03-21T15:21:35;20.30;40.90
8103;DHT22;4094;49.948;11.574;2023-03-21T15:24:12;20.20;41.00
8103;DHT22;4094;49.948;11.574;2023-03-21T15:26:44;20.20;41.30
8103;DHT22;4094;49.948;11.574;2023-03-21T15:29:15;20.10;41.30
8103;DHT22;4094;49.948;11.574;2023-03-21T15:31:46;20.10;41.40
8103;DHT22;4094;49.948;11.574;2023-03-21T15:34:21;20.00;41.40
8103;DHT22;4094;49.948;11.574;2023-03-21T15:36:55;20.00;41.70
8103;DHT22;4094;49.948;11.574;2023-03-21T15:39:27;19.90;41.80
8103;DHT22;4094;49.948;11.574;2023-03-21T15:42:02;19.90;41.90
8103;DHT22;4094;49.948;11.574;2023-03-21T15:44:33;19.80;42.30
8103;DHT22;4094;49.948;11.574;2023-03-21T15:47:02;19.80;42.20
8103;DHT22;4094;49.948;11.574;2023-03-21T15:49:33;19.80;42.30
8103;DHT22;4094;49.948;11.574;2023-03-21T15:52:12;19.70;42.60
8103;DHT22;4094;49.948;11.574;2023-03-21T15:54:45;19.70;42.80
8103;DHT22;4094;49.948;11.574;2023-03-21T15:57:19;19.60;42.60
8103;DHT22;4094;49.948;11.574;2023-03-21T15:59:54;19.60;42.70
8103;DHT22;4094;49.948;11.574;2023-03-21T16:02:24;19.60;42.90
8103;DHT22;4094;49.948;11.574;2023-03-21T16:04:58;19.50;42.80
8103;DHT22;4094;49.948;11.574;2023-03-21T16:07:28;19.50;43.00
8103;DHT22;4094;49.948;11.574;2023-03-21T16:10:00;19.50;43.10
8103;DHT22;4094;49.948;11.574;2023-03-21T16:12:31;19.40;43.30
8103;DHT22;4094;49.948;11.574;2023-03-21T16:15:00;19.40;43.20
8103;DHT22;4094;49.948;11.574;2023-03-21T16:17:31;19.40;43.50
8103;DHT22;4094;49.948;11.574;2023-03-21T16:20:12;19.30;43.50
8103;DHT22;4094;49.948;11.574;2023-03-21T16:22:43;19.30;43.90
8103;DHT22;4094;49.948;11.574;2023-03-21T16:25:14;19.30;43.80
8103;DHT22;4094;49.948;11.574;2023-03-21T16:27:44;19.30;43.80
8103;DHT22;4094;49.948;11.574;2023-03-21T16:30:15;19.20;43.90
8103;DHT22;4094;49.948;11.574;2023-03-21T16:32:44;19.20;44.00
8103;DHT22;4094;49.948;11.574;2023-03-21T16:35:13;19.20;44.10
8103;DHT22;4094;49.948;11.574;2023-03-21T16:37:43;19.10;44.00
8103;DHT22;4094;49.948;11.574;2023-03-21T16:40:21;19.10;44.70